createdAt,value
2019-05-07T00:02:02.941Z,24.73
2019-05-07T00:04:33.040Z,29.13
2019-05-07T00:07:02.364Z,19.97
2019-05-07T00:09:32.293Z,23.33
2019-05-07T00:12:04.725Z,31.90
2019-05-07T00:14:32.000Z,21.87
2019-05-07T00:17:02.229Z,22.70
2019-05-07T00:19:32.432Z,24.03
2019-05-07T00:22:02.344Z,23.27
2019-05-07T00:24:33.146Z,26.57
2019-05-07T00:27:02.763Z,21.87
2019-05-07T00:29:32.148Z,20.43
2019-05-07T00:32:12.103Z,23.87
2019-05-07T00:34:42.548Z,20.37
2019-05-07T00:37:22.139Z,18.00
2019-05-07T00:40:07.879Z,32.03
2019-05-07T00:42:54.130Z,28.37
2019-05-07T00:45:24.202Z,29.90
2019-05-07T00:47:52.631Z,22.37
2019-05-07T00:50:22.715Z,25.13
2019-05-07T00:52:52.408Z,20.83
2019-05-07T00:55:22.715Z,28.20
2019-05-07T00:57:52.622Z,27.83
2019-05-07T01:00:22.367Z,24.10
2019-05-07T01:02:52.544Z,23.20
2019-05-07T01:05:23.118Z,29.00
2019-05-07T01:07:52.915Z,28.47
2019-05-07T01:10:22.563Z,28.20
2019-05-07T01:12:53.000Z,24.77
2019-05-07T01:15:28.891Z,29.53
2019-05-07T01:17:52.020Z,28.40
2019-05-07T01:20:22.155Z,26.77
2019-05-07T01:22:54.196Z,17.23
2019-05-07T01:25:22.079Z,28.70
2019-05-07T01:27:50.813Z,28.50
2019-05-07T01:30:19.694Z,30.27
2019-05-07T01:32:55.770Z,27.37
2019-05-07T01:35:44.120Z,33.63
2019-05-07T01:38:13.491Z,29.93
2019-05-07T01:40:42.773Z,25.80
2019-05-07T01:43:12.050Z,27.83
2019-05-07T01:45:48.980Z,30.40
2019-05-07T01:48:14.985Z,30.50
2019-05-07T01:50:43.921Z,29.33
2019-05-07T01:53:12.389Z,26.97
2019-05-07T01:55:42.767Z,26.87
2019-05-07T01:58:12.609Z,27.83
2019-05-07T02:00:42.489Z,24.70
2019-05-07T02:03:12.806Z,24.93
2019-05-07T02:05:45.735Z,38.83
2019-05-07T02:08:15.805Z,34.17
2019-05-07T02:10:46.035Z,28.40
2019-05-07T02:13:14.502Z,27.07
2019-05-07T02:15:56.516Z,31.27
2019-05-07T02:18:13.086Z,21.97
2019-05-07T02:20:42.609Z,26.00
2019-05-07T02:23:12.781Z,23.10
2019-05-07T02:25:41.987Z,26.90
2019-05-07T02:28:12.700Z,28.33
2019-05-07T02:30:44.064Z,28.23
2019-05-07T02:33:13.813Z,25.27
2019-05-07T02:35:43.899Z,29.53
2019-05-07T02:38:13.897Z,36.03
2019-05-07T02:40:46.821Z,34.30
2019-05-07T02:43:15.626Z,26.60
2019-05-07T02:45:48.333Z,35.33
2019-05-07T02:48:18.410Z,25.57
2019-05-07T02:50:48.464Z,25.33
2019-05-07T02:53:19.309Z,31.57
2019-05-07T02:55:52.862Z,29.70
2019-05-07T02:58:24.094Z,28.93
2019-05-07T03:00:53.199Z,29.43
2019-05-07T03:03:24.747Z,33.90
2019-05-07T03:05:53.696Z,27.30
2019-05-07T03:08:27.055Z,25.47
2019-05-07T03:10:52.992Z,25.33
2019-05-07T03:13:23.710Z,27.30
2019-05-07T03:15:54.022Z,25.77
2019-05-07T03:18:23.378Z,23.70
2019-05-07T03:21:09.002Z,28.33
2019-05-07T03:23:53.662Z,30.33
2019-05-07T03:26:25.624Z,42.73
2019-05-07T03:28:55.711Z,25.87
2019-05-07T03:31:28.608Z,25.10
2019-05-07T03:34:06.264Z,23.43
2019-05-07T03:36:39.442Z,25.57
2019-05-07T03:39:14.112Z,29.83
2019-05-07T03:41:43.354Z,33.77
2019-05-07T03:44:15.976Z,25.73
2019-05-07T03:46:56.724Z,22.73
2019-05-07T03:49:34.497Z,26.63
2019-05-07T03:52:04.333Z,26.70
2019-05-07T03:54:34.052Z,29.10
2019-05-07T03:57:10.691Z,25.70
2019-05-07T03:59:34.186Z,26.50
2019-05-07T04:02:03.441Z,34.80
2019-05-07T04:04:33.223Z,27.43
2019-05-07T04:07:03.398Z,23.43
2019-05-07T04:09:33.380Z,22.87
2019-05-07T04:12:05.029Z,25.93
2019-05-07T04:14:34.412Z,23.73
2019-05-07T04:17:16.612Z,25.53
2019-05-07T04:19:33.563Z,23.90
2019-05-07T04:22:04.264Z,26.70
2019-05-07T04:24:46.018Z,18.03
2019-05-07T04:27:33.225Z,30.90
2019-05-07T04:30:03.723Z,35.20
2019-05-07T04:32:33.442Z,25.20
2019-05-07T04:35:04.161Z,25.37
2019-05-07T04:37:33.369Z,21.00
2019-05-07T04:40:03.209Z,25.23
2019-05-07T04:42:33.451Z,27.43
2019-05-07T04:45:04.335Z,24.43
2019-05-07T04:47:42.085Z,24.27
2019-05-07T04:50:03.798Z,19.87
2019-05-07T04:52:38.513Z,21.97
2019-05-07T04:55:07.698Z,32.67
2019-05-07T04:57:36.182Z,24.60
2019-05-07T05:00:07.342Z,20.83
2019-05-07T05:02:53.024Z,24.57
2019-05-07T05:05:23.540Z,18.90
2019-05-07T05:07:53.328Z,19.10
2019-05-07T05:10:23.180Z,29.27
2019-05-07T05:12:53.721Z,22.17
2019-05-07T05:15:22.279Z,26.50
2019-05-07T05:17:53.717Z,17.20
2019-05-07T05:20:22.797Z,21.73
2019-05-07T05:22:58.820Z,26.53
2019-05-07T05:25:29.041Z,23.97
2019-05-07T05:27:57.515Z,23.53
2019-05-07T05:30:27.821Z,20.43
2019-05-07T05:32:56.325Z,23.07
2019-05-07T05:35:24.752Z,25.10
2019-05-07T05:37:53.175Z,25.27
2019-05-07T05:40:22.732Z,18.73
2019-05-07T05:43:09.126Z,24.47
2019-05-07T05:45:42.698Z,24.70
2019-05-07T05:48:13.664Z,24.77
2019-05-07T05:50:49.603Z,24.03
2019-05-07T05:53:32.735Z,30.90
2019-05-07T05:56:07.131Z,22.23
2019-05-07T05:58:43.160Z,23.47
2019-05-07T06:01:32.047Z,24.73
2019-05-07T06:04:12.480Z,16.43
2019-05-07T06:06:44.147Z,18.60
2019-05-07T06:09:56.727Z,15.70
2019-05-07T06:12:49.138Z,24.80
2019-05-07T06:15:28.420Z,16.57
2019-05-07T06:18:21.084Z,21.67
2019-05-07T06:20:49.286Z,19.60
2019-05-07T06:23:23.818Z,26.07
2019-05-07T06:25:55.160Z,19.13
2019-05-07T06:28:32.999Z,20.60
2019-05-07T06:31:04.618Z,22.80
2019-05-07T06:33:37.881Z,17.30
2019-05-07T06:36:12.503Z,19.00
2019-05-07T06:39:02.129Z,16.23
2019-05-07T06:41:50.084Z,20.70
2019-05-07T06:44:24.168Z,19.67
2019-05-07T06:46:54.458Z,21.90
2019-05-07T06:49:22.938Z,21.60
2019-05-07T06:51:53.268Z,16.20
2019-05-07T06:54:26.774Z,21.20
2019-05-07T06:57:01.941Z,18.03
2019-05-07T06:59:34.856Z,18.63
2019-05-07T07:02:22.630Z,19.43
2019-05-07T07:04:57.057Z,25.10
2019-05-07T07:07:41.862Z,17.20
2019-05-07T07:10:27.911Z,25.87
2019-05-07T07:12:56.630Z,21.27
2019-05-07T07:15:29.152Z,19.00
2019-05-07T07:18:09.067Z,20.00
2019-05-07T07:20:39.223Z,19.17
2019-05-07T07:23:12.333Z,24.70
2019-05-07T07:25:45.032Z,21.70
2019-05-07T07:28:13.719Z,23.43
2019-05-07T07:31:02.535Z,20.27
2019-05-07T07:33:32.609Z,19.40
2019-05-07T07:36:04.389Z,31.20
2019-05-07T07:38:38.052Z,30.93
2019-05-07T07:41:12.749Z,37.23
2019-05-07T07:43:45.311Z,34.27
2019-05-07T07:46:18.535Z,39.33
2019-05-07T07:49:02.418Z,29.07
2019-05-07T07:51:18.433Z,35.33
2019-05-07T07:53:46.886Z,31.63
2019-05-07T07:56:49.204Z,33.60
2019-05-07T07:59:16.700Z,25.40
2019-05-07T08:02:04.876Z,27.40
2019-05-07T08:04:33.911Z,35.10
2019-05-07T08:07:06.518Z,30.00
2019-05-07T08:09:38.291Z,34.60
2019-05-07T08:12:07.413Z,48.03
2019-05-07T08:14:36.047Z,31.43
2019-05-07T08:17:07.778Z,36.00
2019-05-07T08:19:42.846Z,36.90
2019-05-07T08:22:14.579Z,41.73
2019-05-07T08:24:43.021Z,37.13
2019-05-07T08:27:15.149Z,36.40
2019-05-07T08:29:44.187Z,41.73
2019-05-07T08:32:18.191Z,36.20
2019-05-07T08:35:02.220Z,42.30
2019-05-07T08:37:31.690Z,37.20
2019-05-07T08:40:02.898Z,34.80
2019-05-07T08:42:33.299Z,31.27
2019-05-07T08:45:07.271Z,29.43
2019-05-07T08:47:42.412Z,28.43
2019-05-07T08:50:13.968Z,34.97
2019-05-07T08:52:42.397Z,31.33
2019-05-07T08:55:12.611Z,30.73
2019-05-07T08:57:45.665Z,43.40
2019-05-07T09:00:22.201Z,30.20
2019-05-07T09:02:52.583Z,33.10
2019-05-07T09:05:27.730Z,34.87
2019-05-07T09:08:02.377Z,31.30
2019-05-07T09:10:33.365Z,31.60
2019-05-07T09:13:06.797Z,30.10
2019-05-07T09:15:37.791Z,33.30
2019-05-07T09:18:06.654Z,31.17
2019-05-07T09:20:35.116Z,34.50
2019-05-07T09:23:08.723Z,26.80
2019-05-07T09:25:41.776Z,29.10
2019-05-07T09:28:11.904Z,35.20
2019-05-07T09:30:53.840Z,26.10
2019-05-07T09:33:34.883Z,27.17
2019-05-07T09:36:03.912Z,25.33
2019-05-07T09:38:33.362Z,33.50
2019-05-07T09:41:11.899Z,25.27
2019-05-07T09:43:42.432Z,28.83
2019-05-07T09:46:15.384Z,28.77
2019-05-07T09:48:48.598Z,33.13
2019-05-07T09:51:22.652Z,28.43
2019-05-07T09:53:47.236Z,23.73
2019-05-07T09:56:18.870Z,26.73
2019-05-07T09:58:50.391Z,26.40
2019-05-07T10:01:25.184Z,23.80
2019-05-07T10:03:56.615Z,24.30
2019-05-07T10:06:25.410Z,28.63
2019-05-07T10:08:53.946Z,31.13
2019-05-07T10:11:28.636Z,22.53
2019-05-07T10:14:02.030Z,28.87
2019-05-07T10:16:47.438Z,24.90
2019-05-07T10:19:15.992Z,23.40
2019-05-07T10:21:44.716Z,26.40
2019-05-07T10:24:17.931Z,30.17
2019-05-07T10:26:49.073Z,23.53
2019-05-07T10:29:22.796Z,25.97
2019-05-07T10:31:47.947Z,24.77
2019-05-07T10:34:17.947Z,27.20
2019-05-07T10:36:52.765Z,29.00
2019-05-07T10:39:26.109Z,25.50
2019-05-07T10:42:01.871Z,24.73
2019-05-07T10:44:35.600Z,28.30
2019-05-07T10:47:28.045Z,27.47
2019-05-07T10:50:14.853Z,21.30
2019-05-07T10:52:45.811Z,26.70
2019-05-07T10:55:19.346Z,23.90
2019-05-07T10:57:44.739Z,20.40
2019-05-07T11:00:17.634Z,25.63
2019-05-07T11:02:48.114Z,21.23
2019-05-07T11:05:21.950Z,20.43
2019-05-07T11:07:56.516Z,23.70
2019-05-07T11:10:28.435Z,19.30
2019-05-07T11:13:02.578Z,23.30
2019-05-07T11:15:32.984Z,19.60
2019-05-07T11:20:50.268Z,14.77
2019-05-07T11:23:22.226Z,19.10
2019-05-07T11:25:54.321Z,19.03
2019-05-07T11:28:27.595Z,29.87
2019-05-07T11:30:57.429Z,21.27
2019-05-07T11:33:26.001Z,21.80
2019-05-07T11:35:56.747Z,31.27
2019-05-07T11:38:28.489Z,22.87
2019-05-07T11:41:02.420Z,25.90
2019-05-07T11:43:47.767Z,30.77
2019-05-07T11:46:18.125Z,19.80
2019-05-07T11:48:51.442Z,29.67
2019-05-07T11:51:34.931Z,23.80
2019-05-07T11:54:12.520Z,17.73
2019-05-07T11:56:42.720Z,19.40
2019-05-07T11:59:17.399Z,19.73
2019-05-07T12:01:52.616Z,20.07
2019-05-07T12:04:27.486Z,17.00
2019-05-07T12:06:58.921Z,15.83
2019-05-07T12:09:33.387Z,13.20
2019-05-07T12:11:57.561Z,17.73
2019-05-07T12:14:31.549Z,21.83
2019-05-07T12:17:02.796Z,17.57
2019-05-07T12:19:35.334Z,16.17
2019-05-07T12:22:15.735Z,21.23
2019-05-07T12:24:45.795Z,14.63
2019-05-07T12:27:16.967Z,21.47
2019-05-07T12:29:48.765Z,18.30
2019-05-07T12:32:27.231Z,21.53
2019-05-07T12:35:02.266Z,16.43
2019-05-07T12:37:33.601Z,22.67
2019-05-07T12:40:07.826Z,17.43
2019-05-07T12:42:42.398Z,11.93
2019-05-07T12:45:16.363Z,13.03
2019-05-07T12:47:49.119Z,11.10
2019-05-07T12:50:22.041Z,10.10
2019-05-07T12:52:53.991Z,13.27
2019-05-07T12:55:37.630Z,13.63
2019-05-07T12:58:07.347Z,11.20
2019-05-07T13:00:46.472Z,38.80
2019-05-07T13:03:34.093Z,30.30
2019-05-07T13:06:05.504Z,13.63
2019-05-07T13:08:38.136Z,19.50
2019-05-07T13:11:13.264Z,13.90
2019-05-07T13:13:45.273Z,15.43
2019-05-07T13:16:14.203Z,16.23
2019-05-07T13:18:43.655Z,13.83
2019-05-07T13:21:13.723Z,13.33
2019-05-07T13:23:46.198Z,25.70
2019-05-07T13:26:16.360Z,22.43
2019-05-07T13:28:45.040Z,17.60
2019-05-07T13:31:16.578Z,16.50
2019-05-07T13:33:52.421Z,14.13
2019-05-07T13:36:23.640Z,17.57
2019-05-07T13:39:02.451Z,38.70
2019-05-07T13:41:44.621Z,12.40
2019-05-07T13:44:22.896Z,16.07
2019-05-07T13:47:13.472Z,11.07
2019-05-07T13:49:45.204Z,16.13
2019-05-07T13:52:17.520Z,11.23
2019-05-07T13:54:52.834Z,11.87
2019-05-07T13:57:24.584Z,17.80
2019-05-07T13:59:58.720Z,8.13
2019-05-07T14:02:31.771Z,11.27
2019-05-07T14:05:00.763Z,18.60
2019-05-07T14:07:32.257Z,8.90
2019-05-07T14:10:02.321Z,67.30
2019-05-07T14:12:35.394Z,14.00
2019-05-07T14:15:07.870Z,16.43
2019-05-07T14:17:36.388Z,13.30
2019-05-07T14:20:06.596Z,13.70
2019-05-07T14:22:38.820Z,14.83
2019-05-07T14:25:11.573Z,11.00
2019-05-07T14:27:44.567Z,9.03
2019-05-07T14:30:21.737Z,12.27
2019-05-07T14:32:57.418Z,13.20
2019-05-07T14:35:29.044Z,11.60
2019-05-07T14:38:02.467Z,11.00
2019-05-07T14:40:34.775Z,8.97
2019-05-07T14:43:08.040Z,7.67
2019-05-07T14:45:38.049Z,12.70
2019-05-07T14:48:06.727Z,9.47
2019-05-07T14:50:37.256Z,9.03
2019-05-07T14:53:08.270Z,6.37
2019-05-07T14:55:36.802Z,8.33
2019-05-07T14:58:05.328Z,6.77
2019-05-07T15:00:37.266Z,22.47
2019-05-07T15:03:12.265Z,15.50
2019-05-07T15:05:43.033Z,18.63
2019-05-07T15:08:14.302Z,8.20
2019-05-07T15:10:42.056Z,6.60
2019-05-07T15:13:12.598Z,11.07
2019-05-07T15:15:41.240Z,12.40
2019-05-07T15:18:12.512Z,8.87
2019-05-07T15:20:41.924Z,11.90
2019-05-07T15:23:18.021Z,12.23
2019-05-07T15:25:47.717Z,13.20
2019-05-07T15:28:17.237Z,13.43
2019-05-07T15:30:52.509Z,10.50
2019-05-07T15:33:21.763Z,7.80
2019-05-07T15:35:52.069Z,7.33
2019-05-07T15:38:21.683Z,12.53
2019-05-07T15:40:51.905Z,11.97
2019-05-07T15:43:20.466Z,10.87
2019-05-07T15:45:49.084Z,10.30
2019-05-07T15:48:17.509Z,9.40
2019-05-07T15:50:46.117Z,9.33
2019-05-07T15:53:25.214Z,10.57
2019-05-07T15:55:53.733Z,9.83
2019-05-07T15:58:22.971Z,13.23
2019-05-07T16:00:51.762Z,11.43
2019-05-07T16:03:22.219Z,9.93
2019-05-07T16:05:52.425Z,12.77
2019-05-07T16:08:22.658Z,9.80
2019-05-07T16:10:53.154Z,20.13
2019-05-07T16:13:23.120Z,6.93
2019-05-07T16:15:52.872Z,11.20
2019-05-07T16:18:23.818Z,10.90
2019-05-07T16:20:52.679Z,15.03
2019-05-07T16:23:22.067Z,13.10
2019-05-07T16:25:52.672Z,12.20
2019-05-07T16:28:21.906Z,15.37
2019-05-07T16:30:52.182Z,9.83
2019-05-07T16:33:20.690Z,8.20
2019-05-07T16:35:49.202Z,18.40
2019-05-07T16:38:18.196Z,11.27
2019-05-07T16:40:46.791Z,14.33
2019-05-07T16:43:15.299Z,10.70
2019-05-07T16:45:43.766Z,10.43
2019-05-07T16:48:12.196Z,10.37
2019-05-07T16:50:40.651Z,12.03
2019-05-07T16:53:09.064Z,11.40
2019-05-07T16:55:37.623Z,13.43
2019-05-07T16:58:12.524Z,12.40
2019-05-07T17:00:42.849Z,16.90
2019-05-07T17:03:13.109Z,8.60
2019-05-07T17:05:42.859Z,12.00
2019-05-07T17:08:13.195Z,14.40
2019-05-07T17:10:42.409Z,16.87
2019-05-07T17:13:12.567Z,8.67
2019-05-07T17:16:03.040Z,14.17
2019-05-07T17:18:32.654Z,9.90
2019-05-07T17:21:02.070Z,8.20
2019-05-07T17:23:43.271Z,10.70
2019-05-07T17:26:01.158Z,12.17
2019-05-07T17:28:31.791Z,14.60
2019-05-07T17:30:59.971Z,10.00
2019-05-07T17:33:28.431Z,6.47
2019-05-07T17:35:56.840Z,11.23
2019-05-07T17:38:25.283Z,9.70
2019-05-07T17:41:08.979Z,9.30
2019-05-07T17:43:25.671Z,9.97
2019-05-07T17:45:54.189Z,10.20
2019-05-07T17:48:23.269Z,9.10
2019-05-07T17:51:08.636Z,14.63
2019-05-07T17:53:37.551Z,11.67
2019-05-07T17:56:05.957Z,10.37
2019-05-07T17:58:34.413Z,10.47
2019-05-07T18:01:04.701Z,10.43
2019-05-07T18:03:34.825Z,7.30
2019-05-07T18:06:03.597Z,8.80
2019-05-07T18:08:32.784Z,13.57
2019-05-07T18:11:17.459Z,11.20
2019-05-07T18:13:34.761Z,6.93
2019-05-07T18:16:04.941Z,15.20
2019-05-07T18:18:33.429Z,7.40
2019-05-07T18:21:02.441Z,11.67
2019-05-07T18:23:32.345Z,10.90
2019-05-07T18:26:00.984Z,6.33
2019-05-07T18:28:29.742Z,23.63
2019-05-07T18:30:58.898Z,10.33
2019-05-07T18:33:33.581Z,13.90
2019-05-07T18:36:02.797Z,11.27
2019-05-07T18:38:32.909Z,20.77
2019-05-07T18:41:02.669Z,9.73
2019-05-07T18:43:33.188Z,10.30
2019-05-07T18:46:02.271Z,9.43
2019-05-07T18:48:31.183Z,10.83
2019-05-07T18:50:59.601Z,15.43
2019-05-07T18:53:28.045Z,8.40
2019-05-07T18:55:56.450Z,14.30
2019-05-07T18:58:24.897Z,16.17
2019-05-07T19:01:02.610Z,12.33
2019-05-07T19:03:32.501Z,11.93
2019-05-07T19:06:02.824Z,11.00
2019-05-07T19:08:32.632Z,11.33
2019-05-07T19:11:01.605Z,9.43
2019-05-07T19:13:30.037Z,10.77
2019-05-07T19:15:58.481Z,19.03
2019-05-07T19:18:26.919Z,10.13
2019-05-07T19:20:56.016Z,28.53
2019-05-07T19:23:24.548Z,13.00
2019-05-07T19:25:52.980Z,11.40
2019-05-07T19:28:22.413Z,11.13
2019-05-07T19:30:52.839Z,12.67
2019-05-07T19:33:26.755Z,9.70
2019-05-07T19:35:53.026Z,15.30
2019-05-07T19:38:21.615Z,12.03
2019-05-07T19:40:50.093Z,13.40
2019-05-07T19:43:18.518Z,14.07
2019-05-07T19:45:46.965Z,15.83
2019-05-07T19:48:15.473Z,17.63
2019-05-07T19:50:43.897Z,17.60
2019-05-07T19:53:12.607Z,23.63
2019-05-07T19:56:01.911Z,14.93
2019-05-07T19:58:32.523Z,16.80
2019-05-07T20:01:01.212Z,18.43
2019-05-07T20:03:29.668Z,18.87
2019-05-07T20:05:58.097Z,18.73
2019-05-07T20:08:26.913Z,22.20
2019-05-07T20:11:13.483Z,22.23
2019-05-07T20:13:43.803Z,17.40
2019-05-07T20:16:15.332Z,14.23
2019-05-07T20:18:43.833Z,20.90
2019-05-07T20:21:12.562Z,19.60
2019-05-07T20:23:43.169Z,22.50
2019-05-07T20:26:12.602Z,16.80
2019-05-07T20:28:41.723Z,18.43
2019-05-07T20:31:12.185Z,21.63
2019-05-07T20:33:42.307Z,17.10
2019-05-07T20:36:13.765Z,18.10
2019-05-07T20:38:42.780Z,20.77
2019-05-07T20:41:12.954Z,26.53
2019-05-07T20:43:43.185Z,21.83
2019-05-07T20:46:12.037Z,17.83
2019-05-07T20:48:42.339Z,19.23
2019-05-07T20:51:12.450Z,15.80
2019-05-07T20:53:54.627Z,18.87
2019-05-07T20:56:34.787Z,17.40
2019-05-07T20:59:03.263Z,18.07
2019-05-07T21:01:32.972Z,19.00
2019-05-07T21:04:02.093Z,23.90
2019-05-07T21:06:32.524Z,16.20
2019-05-07T21:09:01.023Z,16.50
2019-05-07T21:11:29.441Z,25.40
2019-05-07T21:13:57.959Z,17.20
2019-05-07T21:16:26.397Z,16.57
2019-05-07T21:18:54.847Z,22.03
2019-05-07T21:21:23.297Z,18.60
2019-05-07T21:23:52.728Z,15.83
2019-05-07T21:26:22.445Z,26.00
2019-05-07T21:28:52.882Z,27.40
2019-05-07T21:31:22.827Z,27.90
2019-05-07T21:33:52.343Z,17.50
2019-05-07T21:36:22.759Z,20.93
2019-05-07T21:38:51.817Z,21.67
2019-05-07T21:41:22.735Z,21.20
2019-05-07T21:43:52.653Z,20.53
2019-05-07T21:46:22.277Z,19.30
2019-05-07T21:48:51.846Z,16.00
2019-05-07T21:51:22.857Z,14.80
2019-05-07T21:53:53.729Z,13.47
2019-05-07T21:56:36.193Z,17.63
2019-05-07T21:59:06.346Z,12.97
2019-05-07T22:01:48.265Z,19.17
2019-05-07T22:04:16.748Z,16.67
2019-05-07T22:06:45.667Z,13.77
2019-05-07T22:09:15.615Z,15.93
2019-05-07T22:11:44.035Z,15.67
2019-05-07T22:14:13.067Z,10.90
2019-05-07T22:16:42.016Z,15.40
2019-05-07T22:19:12.182Z,15.10
2019-05-07T22:21:42.924Z,14.60
2019-05-07T22:24:14.691Z,21.63
2019-05-07T22:26:42.048Z,15.53
2019-05-07T22:29:12.541Z,13.10
2019-05-07T22:31:45.319Z,12.00
2019-05-07T22:34:15.436Z,16.93
2019-05-07T22:36:43.876Z,16.30
2019-05-07T22:39:12.689Z,15.90
2019-05-07T22:41:42.442Z,19.87
2019-05-07T22:44:12.020Z,13.53
2019-05-07T22:46:42.166Z,16.20
2019-05-07T22:49:12.279Z,18.00
2019-05-07T22:51:41.127Z,12.30
2019-05-07T22:54:11.699Z,16.93
2019-05-07T22:56:56.684Z,12.97
2019-05-07T22:59:25.113Z,19.87
2019-05-07T23:01:54.914Z,19.83
2019-05-07T23:04:23.778Z,14.73
2019-05-07T23:06:52.819Z,16.70
2019-05-07T23:09:22.340Z,17.97
2019-05-07T23:11:52.648Z,13.77
2019-05-07T23:14:22.607Z,17.03
2019-05-07T23:16:52.633Z,12.70
2019-05-07T23:19:22.030Z,13.87
2019-05-07T23:21:52.174Z,20.50
2019-05-07T23:24:22.647Z,19.80
2019-05-07T23:26:53.283Z,15.30
2019-05-07T23:29:22.553Z,14.93
2019-05-07T23:31:53.020Z,16.27
2019-05-07T23:34:22.125Z,16.63
2019-05-07T23:36:53.018Z,17.43
2019-05-07T23:39:22.818Z,13.50
2019-05-07T23:41:52.885Z,12.83
2019-05-07T23:44:24.451Z,18.00
2019-05-07T23:46:52.906Z,16.13
2019-05-07T23:49:23.191Z,16.13
2019-05-07T23:51:53.114Z,17.00
2019-05-07T23:54:23.045Z,14.43
2019-05-07T23:57:04.943Z,20.67
2019-05-07T23:59:22.424Z,15.90
